Time;durP1;ratioP1;P1;durP2;ratioP2;P2;SDS_P1;SDS_P2;PMS_P1;PMS_P2;Temp;Humidity;BMP_temperature;BMP_pressure;BME280_temperature;BME280_humidity;BME280_pressure;Samples;Min_cycle;Max_cycle;Signal;HPM_P1;HPM_P2
2022/02/22 00:01:27;;;;;;;23.48;10.48;;;;;;;9.61;58.71;92722.16;5063244;28;20322;-72
2022/02/22 00:03:53;;;;;;;21.30;11.07;;;;;;;9.61;58.55;92714.94;5063388;28;20044;-71
2022/02/22 00:06:18;;;;;;;22.25;11.23;;;;;;;9.58;58.86;92704.97;5063407;28;20041;-71
2022/02/22 00:08:44;;;;;;;20.83;10.85;;;;;;;9.61;58.71;92698.22;5063174;28;20025;-71
2022/02/22 00:11:09;;;;;;;21.45;10.75;;;;;;;9.70;58.63;92703.41;5063245;28;20276;-71
2022/02/22 00:13:35;;;;;;;21.50;10.73;;;;;;;9.71;58.26;92707.59;5063044;28;20104;-71
2022/02/22 00:16:00;;;;;;;19.02;10.30;;;;;;;9.72;58.17;92709.16;5063246;28;20227;-71
2022/02/22 00:18:27;;;;;;;21.77;9.65;;;;;;;9.74;58.31;92694.41;5063125;28;20199;-71
2022/02/22 00:20:53;;;;;;;18.70;8.82;;;;;;;9.79;58.11;92696.84;5062967;28;20017;-71
2022/02/22 00:23:19;;;;;;;17.45;9.48;;;;;;;9.85;57.86;92694.75;5063066;28;20032;-72
2022/02/22 00:25:45;;;;;;;20.50;8.95;;;;;;;9.88;57.88;92693.28;5062830;28;20095;-72
2022/02/22 00:28:10;;;;;;;19.80;8.43;;;;;;;9.94;57.79;92686.63;5062945;28;20034;-72
2022/02/22 00:30:35;;;;;;;17.67;8.60;;;;;;;9.99;57.52;92676.53;5062911;28;20200;-71
2022/02/22 00:33:01;;;;;;;16.02;8.02;;;;;;;10.03;57.52;92690.72;5062765;28;20040;-71
2022/02/22 00:35:27;;;;;;;18.58;8.35;;;;;;;10.08;57.24;92692.34;5062712;28;20365;-72
2022/02/22 00:37:52;;;;;;;18.05;9.00;;;;;;;9.93;57.58;92687.72;5062684;28;20024;-72
2022/02/22 00:40:18;;;;;;;27.60;9.57;;;;;;;9.78;58.01;92668.69;5062703;28;20021;-72
2022/02/22 00:42:44;;;;;;;19.52;8.38;;;;;;;9.88;57.84;92682.66;5062217;28;20025;-72
2022/02/22 00:45:11;;;;;;;23.73;10.52;;;;;;;9.56;58.52;92688.56;5062532;28;20096;-72
2022/02/22 00:47:36;;;;;;;18.10;10.10;;;;;;;9.46;59.19;92704.22;5062414;28;20029;-73
2022/02/22 00:50:02;;;;;;;21.25;9.70;;;;;;;9.27;60.09;92696.81;5062416;28;20033;-72
2022/02/22 00:52:29;;;;;;;16.85;10.02;;;;;;;9.27;60.18;92692.25;5062486;28;20028;-71
2022/02/22 00:54:54;;;;;;;19.58;10.88;;;;;;;9.21;60.31;92685.59;5062338;28;20039;-71
2022/02/22 00:57:20;;;;;;;20.48;10.10;;;;;;;9.07;60.75;92690.47;5061967;28;20327;-72
2022/02/22 00:59:45;;;;;;;19.00;10.80;;;;;;;9.00;61.31;92683.81;5062372;28;20033;-72
2022/02/22 01:02:11;;;;;;;22.40;11.90;;;;;;;9.06;61.24;92675.63;5062567;28;20023;-72
2022/02/22 01:04:36;;;;;;;17.52;10.32;;;;;;;9.11;60.94;92670.09;5062447;28;20342;-72
2022/02/22 01:07:02;;;;;;;20.10;10.57;;;;;;;9.19;61.03;92669.22;5062151;28;20364;-71
2022/02/22 01:09:28;;;;;;;18.08;10.20;;;;;;;9.29;61.10;92649.38;5062102;28;20255;-72
2022/02/22 01:11:53;;;;;;;20.88;9.68;;;;;;;9.36;61.36;92652.25;5061992;28;20041;-71
2022/02/22 01:14:19;;;;;;;17.73;8.52;;;;;;;9.39;61.12;92667.53;5062202;28;20021;-71
2022/02/22 01:16:45;;;;;;;16.63;9.35;;;;;;;9.24;61.06;92671.66;5062049;28;20048;-71
2022/02/22 01:19:11;;;;;;;19.60;9.90;;;;;;;9.20;61.13;92670.78;5062268;28;20108;-72
2022/02/22 01:21:37;;;;;;;16.95;9.13;;;;;;;9.15;61.55;92674.41;5062072;28;20036;-71
2022/02/22 01:24:05;;;;;;;19.98;9.32;;;;;;;9.01;62.31;92680.03;5062184;28;20044;-71
2022/02/22 01:26:31;;;;;;;18.52;10.45;;;;;;;8.98;62.42;92680.72;5062086;28;20200;-71
2022/02/22 01:28:58;;;;;;;20.20;10.43;;;;;;;8.93;62.67;92674.84;5061963;28;20032;-71
2022/02/22 01:31:24;;;;;;;23.60;11.90;;;;;;;8.92;63.13;92674.06;5062070;28;20021;-71
2022/02/22 01:33:54;;;;;;;19.05;10.93;;;;;;;8.93;63.16;92667.63;5062077;28;20027;-71
2022/02/22 01:36:21;;;;;;;20.13;10.15;;;;;;;8.95;63.65;92670.75;5061989;28;20031;-72
2022/02/22 01:38:47;;;;;;;17.77;10.65;;;;;;;9.02;63.45;92665.66;5061910;28;20025;-72
2022/02/22 01:41:12;;;;;;;22.05;10.45;;;;;;;9.07;62.94;92666.56;5062204;28;20319;-72
2022/02/22 01:43:41;;;;;;;20.63;11.13;;;;;;;9.08;62.71;92663.56;5061963;28;20017;-71
2022/02/22 01:46:06;;;;;;;22.85;11.65;;;;;;;9.11;63.00;92662.13;5061972;28;20024;-71
2022/02/22 01:48:32;;;;;;;20.40;11.55;;;;;;;9.14;62.91;92672.06;5061697;28;20096;-71
2022/02/22 01:50:57;;;;;;;22.95;11.73;;;;;;;8.98;63.53;92674.66;5062144;28;20020;-72
2022/02/22 01:53:23;;;;;;;26.65;11.25;;;;;;;8.93;63.54;92672.97;5061783;28;20311;-72
2022/02/22 01:55:48;;;;;;;21.80;11.35;;;;;;;8.84;64.11;92686.34;5064854;28;20094;-72
2022/02/22 01:58:14;;;;;;;29.75;12.43;;;;;;;8.74;64.46;92692.09;5065758;28;20024;-72
2022/02/22 02:00:45;;;;;;;22.85;12.25;;;;;;;8.53;65.61;92684.19;5066002;28;20040;-73
2022/02/22 02:03:15;;;;;;;21.92;11.80;;;;;;;8.47;65.94;92684.72;5065814;28;20084;-71
2022/02/22 02:05:41;;;;;;;20.95;11.20;;;;;;;8.35;66.30;92686.22;5065558;28;20028;-72
2022/02/22 02:08:06;;;;;;;23.75;12.70;;;;;;;8.27;66.70;92689.72;5065546;28;20803;-72
2022/02/22 02:10:32;;;;;;;22.42;11.10;;;;;;;8.12;67.34;92698.28;5065491;28;20093;-72
2022/02/22 02:12:57;;;;;;;28.58;13.38;;;;;;;8.03;68.09;92704.44;5065300;28;20041;-71
2022/02/22 02:15:23;;;;;;;20.58;11.38;;;;;;;7.93;68.87;92702.19;5065456;28;20031;-71
2022/02/22 02:17:48;;;;;;;27.00;13.00;;;;;;;7.99;68.79;92705.41;5064025;28;20013;-71
2022/02/22 02:20:14;;;;;;;20.60;12.95;;;;;;;8.06;68.72;92695.06;5065572;28;20223;-72
2022/02/22 02:22:40;;;;;;;21.60;12.80;;;;;;;8.16;68.77;92693.88;5065337;28;20059;-72
2022/02/22 02:25:07;;;;;;;26.50;13.32;;;;;;;8.25;68.19;92705.22;5065333;28;20017;-71
2022/02/22 02:27:33;;;;;;;29.42;12.77;;;;;;;8.22;68.57;92701.34;5065019;28;20024;-71
2022/02/22 02:29:59;;;;;;;27.23;13.60;;;;;;;8.26;68.53;92698.78;5065124;28;20184;-72
2022/02/22 02:32:28;;;;;;;25.30;12.80;;;;;;;8.32;68.35;92696.72;5065136;28;20024;-71
2022/02/22 02:34:54;;;;;;;27.90;13.45;;;;;;;8.31;68.47;92700.47;5065209;28;20028;-71
2022/02/22 02:37:20;;;;;;;23.55;13.02;;;;;;;8.23;68.87;92697.56;5065084;28;20032;-71
2022/02/22 02:39:45;;;;;;;22.00;13.35;;;;;;;8.24;68.90;92688.50;5064921;28;20215;-71
2022/02/22 02:42:11;;;;;;;27.95;13.60;;;;;;;8.32;68.82;92702.00;5064913;28;20024;-71
2022/02/22 02:44:36;;;;;;;22.92;12.88;;;;;;;8.26;69.07;92704.09;5064683;28;20040;-71
2022/02/22 02:47:04;;;;;;;21.45;13.63;;;;;;;8.25;68.83;92691.94;5063779;28;20028;-71
2022/02/22 02:49:30;;;;;;;25.45;13.13;;;;;;;8.12;69.19;92687.66;5064830;28;20047;-71
2022/02/22 02:51:56;;;;;;;23.40;12.68;;;;;;;8.11;69.44;92692.22;5064651;28;20092;-71
2022/02/22 02:54:21;;;;;;;25.55;13.55;;;;;;;8.12;69.60;92698.28;5064705;28;20369;-71
2022/02/22 02:56:47;;;;;;;25.48;12.95;;;;;;;8.07;69.41;92698.50;5064477;28;20020;-72
2022/02/22 02:59:12;;;;;;;25.40;13.02;;;;;;;8.03;69.85;92701.78;5064732;28;20013;-72
2022/02/22 03:01:39;;;;;;;27.02;13.40;;;;;;;7.95;70.30;92694.66;5064661;28;20036;-72
2022/02/22 03:04:05;;;;;;;25.20;13.50;;;;;;;7.98;70.46;92699.34;5064476;28;20451;-72
2022/02/22 03:06:30;;;;;;;29.45;14.00;;;;;;;8.03;70.69;92693.06;5063713;28;20320;-72
2022/02/22 03:08:56;;;;;;;25.10;13.10;;;;;;;8.14;70.38;92696.06;5064299;28;20021;-72
2022/02/22 03:11:22;;;;;;;26.10;13.07;;;;;;;8.28;69.46;92696.56;5064114;28;20021;-72
2022/02/22 03:13:47;;;;;;;20.63;12.45;;;;;;;8.26;69.44;92695.34;5064692;28;20020;-72
2022/02/22 03:16:12;;;;;;;25.30;12.98;;;;;;;8.17;69.91;92692.78;5064262;28;20021;-71
2022/02/22 03:18:38;;;;;;;22.15;12.68;;;;;;;8.24;69.89;92700.97;5064175;28;20052;-71
2022/02/22 03:21:05;;;;;;;27.55;12.68;;;;;;;8.24;70.12;92701.78;5064289;28;20017;-71
2022/02/22 03:23:30;;;;;;;26.52;12.70;;;;;;;8.29;69.63;92711.41;5064171;28;20017;-71
2022/02/22 03:25:56;;;;;;;24.92;12.50;;;;;;;8.31;69.84;92705.78;5063974;28;20016;-71
2022/02/22 03:28:22;;;;;;;26.65;11.73;;;;;;;8.39;69.50;92699.63;5063870;28;20341;-72
2022/02/22 03:30:48;;;;;;;22.65;13.05;;;;;;;8.42;69.51;92702.41;5064142;28;20025;-72
2022/02/22 03:33:14;;;;;;;22.13;12.63;;;;;;;8.47;68.93;92706.75;5064102;28;20021;-72
2022/02/22 03:35:40;;;;;;;28.80;12.70;;;;;;;8.52;68.82;92695.13;5063949;28;20063;-71
2022/02/22 03:38:07;;;;;;;22.17;13.38;;;;;;;8.54;68.27;92708.88;5062726;28;20323;-71
2022/02/22 03:40:32;;;;;;;25.52;13.07;;;;;;;8.54;68.68;92703.56;5063653;28;20024;-72
2022/02/22 03:42:58;;;;;;;27.42;11.43;;;;;;;8.44;69.20;92707.41;5063947;28;20017;-72
2022/02/22 03:45:24;;;;;;;20.70;11.38;;;;;;;8.44;69.14;92705.50;5063989;28;20020;-72
2022/02/22 03:47:50;;;;;;;23.95;13.07;;;;;;;8.42;69.19;92705.06;5063828;28;20256;-72
2022/02/22 03:50:16;;;;;;;24.42;11.75;;;;;;;8.38;69.51;92713.97;5063871;28;20020;-72
2022/02/22 03:52:42;;;;;;;24.80;13.13;;;;;;;8.35;69.63;92710.13;5063528;28;20210;-72
2022/02/22 03:55:08;;;;;;;25.45;13.57;;;;;;;8.36;69.69;92716.19;5063405;28;20219;-72
2022/02/22 03:57:34;;;;;;;25.05;12.32;;;;;;;8.33;69.87;92714.97;5063500;28;20023;-72
2022/02/22 04:00:01;;;;;;;23.30;12.07;;;;;;;8.26;69.79;92711.28;5063560;28;20032;-71
2022/02/22 04:02:26;;;;;;;25.38;13.63;;;;;;;8.24;70.28;92715.06;5063386;28;20223;-71
2022/02/22 04:04:52;;;;;;;22.77;12.30;;;;;;;8.27;70.30;92712.84;5063374;28;20033;-70
2022/02/22 04:07:17;;;;;;;24.25;12.60;;;;;;;8.29;70.15;92718.59;5063296;28;20024;-71
2022/02/22 04:09:43;;;;;;;21.70;13.65;;;;;;;8.31;70.33;92711.09;5063383;28;20074;-71
2022/02/22 04:12:09;;;;;;;28.27;13.55;;;;;;;8.23;70.78;92723.34;5063087;28;20037;-71
2022/02/22 04:14:34;;;;;;;22.58;13.45;;;;;;;8.19;71.35;92715.25;5063193;28;20021;-71
2022/02/22 04:17:00;;;;;;;25.25;14.73;;;;;;;8.12;71.58;92714.19;5063149;28;20036;-71
2022/02/22 04:19:25;;;;;;;24.05;14.00;;;;;;;8.13;71.89;92715.78;5061960;28;20017;-71
2022/02/22 04:21:50;;;;;;;31.73;15.63;;;;;;;8.06;72.13;92718.97;5062876;28;20032;-71
2022/02/22 04:24:16;;;;;;;33.72;16.25;;;;;;;8.07;72.27;92730.34;5062997;28;20029;-71
2022/02/22 04:26:41;;;;;;;24.05;15.23;;;;;;;7.98;72.56;92741.03;5062759;28;20021;-71
2022/02/22 04:29:07;;;;;;;18.02;10.23;;;;;;;7.93;72.43;92733.25;5062727;28;20024;-71
2022/02/22 04:31:38;;;;;;;14.00;7.95;;;;;;;7.82;72.57;92743.47;5062800;28;20017;-71
2022/02/22 04:34:07;;;;;;;13.50;6.25;;;;;;;7.70;72.95;92743.41;5062797;28;20086;-70
2022/02/22 04:36:33;;;;;;;12.25;6.78;;;;;;;7.69;72.79;92742.59;5062800;28;20026;-71
2022/02/22 04:38:59;;;;;;;11.27;5.40;;;;;;;7.62;73.52;92745.00;5061507;28;20029;-71
2022/02/22 04:41:25;;;;;;;12.07;5.55;;;;;;;7.58;73.54;92752.81;5062702;28;20029;-71
2022/02/22 04:43:50;;;;;;;9.75;5.63;;;;;;;7.51;72.55;92762.34;5062774;28;20061;-71
2022/02/22 04:46:16;;;;;;;7.88;4.35;;;;;;;7.40;72.16;92762.72;5062796;28;20028;-72
2022/02/22 04:48:41;;;;;;;9.93;4.03;;;;;;;7.33;72.76;92765.09;5062554;28;20263;-72
2022/02/22 04:51:07;;;;;;;8.15;3.83;;;;;;;7.27;73.50;92777.00;5062512;28;20051;-72
2022/02/22 04:53:32;;;;;;;7.68;3.88;;;;;;;7.18;74.58;92768.28;5062607;28;20223;-72
2022/02/22 04:55:58;;;;;;;15.57;3.63;;;;;;;7.14;75.19;92770.00;5062372;28;20047;-72
2022/02/22 04:58:23;;;;;;;8.48;4.82;;;;;;;7.13;75.74;92771.13;5062452;28;20029;-72
2022/02/22 05:00:50;;;;;;;6.32;3.90;;;;;;;7.02;76.44;92782.06;5062415;28;20083;-72
2022/02/22 05:03:16;;;;;;;8.95;3.33;;;;;;;6.92;75.24;92792.19;5062472;28;20040;-72
2022/02/22 05:05:41;;;;;;;9.68;3.10;;;;;;;6.90;76.62;92794.38;5062334;28;20024;-72
2022/02/22 05:08:07;;;;;;;9.27;3.40;;;;;;;6.81;77.51;92794.41;5062267;28;20024;-72
2022/02/22 05:10:32;;;;;;;7.07;3.38;;;;;;;6.69;78.11;92796.94;5062349;28;20029;-72
2022/02/22 05:12:58;;;;;;;7.60;3.33;;;;;;;6.64;78.43;92808.47;5062062;28;20048;-73
2022/02/22 05:15:23;;;;;;;5.90;3.38;;;;;;;6.56;78.99;92804.75;5062084;28;20036;-72
2022/02/22 05:17:49;;;;;;;6.63;3.40;;;;;;;6.60;78.58;92803.03;5062435;28;20075;-73
2022/02/22 05:20:15;;;;;;;12.82;3.17;;;;;;;6.54;79.11;92808.78;5062230;28;20051;-73
2022/02/22 05:22:45;;;;;;;4.47;2.13;;;;;;;6.43;78.73;92808.31;5062061;28;20032;-72
2022/02/22 05:25:13;;;;;;;7.15;2.65;;;;;;;6.40;78.30;92803.66;5061891;28;20119;-72
2022/02/22 05:27:39;;;;;;;6.13;2.67;;;;;;;6.39;78.60;92796.78;5061565;28;20032;-72
2022/02/22 05:30:06;;;;;;;5.45;2.40;;;;;;;6.44;78.49;92799.31;5064087;28;20261;-72
2022/02/22 05:32:32;;;;;;;5.68;2.13;;;;;;;6.52;79.05;92800.38;5066217;28;20041;-72
2022/02/22 05:34:58;;;;;;;3.90;2.40;;;;;;;6.58;79.03;92794.63;5066135;28;20055;-72
2022/02/22 05:37:24;;;;;;;4.85;2.28;;;;;;;6.68;78.93;92790.88;5066466;28;20060;-73
2022/02/22 05:39:50;;;;;;;4.45;2.70;;;;;;;6.83;79.03;92797.53;5066123;28;20262;-73
2022/02/22 05:42:15;;;;;;;6.20;3.05;;;;;;;6.98;79.05;92791.75;5066421;28;20025;-72
2022/02/22 05:44:41;;;;;;;6.65;2.90;;;;;;;7.10;78.77;92798.25;5066115;28;20118;-72
2022/02/22 05:47:06;;;;;;;4.85;2.90;;;;;;;7.21;78.42;92808.19;5066055;28;20029;-73
2022/02/22 05:49:32;;;;;;;10.20;3.63;;;;;;;7.33;78.07;92806.75;5065820;28;20029;-73
2022/02/22 05:51:57;;;;;;;6.30;2.80;;;;;;;7.43;77.90;92812.47;5065814;28;20067;-73
2022/02/22 05:54:23;;;;;;;4.60;2.50;;;;;;;7.54;77.35;92809.47;5065654;28;20025;-71
2022/02/22 05:56:48;;;;;;;8.30;3.17;;;;;;;7.63;76.87;92805.69;5066039;28;20031;-72
2022/02/22 05:59:14;;;;;;;6.35;2.90;;;;;;;7.71;76.39;92805.94;5065896;28;20204;-72
2022/02/22 06:01:43;;;;;;;13.35;3.83;;;;;;;7.74;76.60;92813.28;5065746;28;20326;-73
2022/02/22 06:04:11;;;;;;;13.88;6.75;;;;;;;7.80;76.23;92823.38;5065586;28;20029;-72
2022/02/22 06:06:39;;;;;;;14.48;6.63;;;;;;;7.83;76.00;92814.75;5065389;28;20047;-71
2022/02/22 06:09:04;;;;;;;12.75;5.43;;;;;;;7.89;75.63;92819.91;5065423;28;20074;-70
2022/02/22 06:11:30;;;;;;;7.53;3.20;;;;;;;7.88;74.90;92816.47;5065454;28;20175;-71
2022/02/22 06:13:55;;;;;;;4.13;2.80;;;;;;;7.91;75.07;92823.00;5065424;28;20044;-70
2022/02/22 06:16:21;;;;;;;10.75;4.13;;;;;;;7.96;74.90;92822.81;5065407;28;20025;-71
2022/02/22 06:18:46;;;;;;;6.05;3.63;;;;;;;8.00;74.97;92815.78;5065214;28;20021;-71
2022/02/22 06:21:12;;;;;;;8.05;4.07;;;;;;;8.06;75.46;92822.44;5065102;28;20029;-70
2022/02/22 06:23:37;;;;;;;6.57;3.33;;;;;;;8.13;74.81;92814.75;5065180;28;20032;-71
2022/02/22 06:26:03;;;;;;;9.82;4.28;;;;;;;8.12;75.15;92821.16;5065211;28;20291;-71
2022/02/22 06:28:28;;;;;;;8.98;4.00;;;;;;;8.19;75.27;92810.03;5065021;28;20039;-71
2022/02/22 06:30:54;;;;;;;9.20;4.18;;;;;;;8.26;75.59;92830.75;5064967;28;20309;-72
2022/02/22 06:33:19;;;;;;;6.13;3.78;;;;;;;8.29;75.41;92830.09;5065175;28;20327;-72
2022/02/22 06:35:45;;;;;;;9.32;4.47;;;;;;;8.32;75.01;92824.91;5064982;28;20025;-72
2022/02/22 06:38:10;;;;;;;11.57;5.30;;;;;;;8.33;74.95;92821.16;5065002;28;20317;-72
2022/02/22 06:40:36;;;;;;;15.50;4.68;;;;;;;8.33;75.13;92810.53;5064525;28;20021;-72
2022/02/22 06:43:02;;;;;;;10.73;5.22;;;;;;;8.38;74.62;92812.22;5064042;28;20048;-77
2022/02/22 06:45:28;;;;;;;7.95;4.82;;;;;;;8.35;74.87;92808.34;5064920;28;20036;-76
2022/02/22 06:47:54;;;;;;;10.70;4.75;;;;;;;8.37;75.28;92822.06;5064778;28;20032;-76
2022/02/22 06:50:20;;;;;;;10.60;6.13;;;;;;;8.36;74.69;92819.72;5063498;28;20028;-74
2022/02/22 06:52:45;;;;;;;13.52;5.82;;;;;;;8.40;74.67;92820.66;5062987;28;20044;-73
2022/02/22 06:55:13;;;;;;;13.85;6.53;;;;;;;8.46;74.81;92814.06;5063465;28;20052;-74
2022/02/22 06:57:40;;;;;;;12.35;6.13;;;;;;;8.51;74.60;92816.53;5063973;28;20319;-73
2022/02/22 07:00:09;;;;;;;12.93;6.28;;;;;;;8.59;74.68;92815.69;5064534;28;20025;-73
2022/02/22 07:02:39;;;;;;;11.90;6.45;;;;;;;8.64;74.43;92815.47;5064292;28;20327;-74
2022/02/22 07:05:05;;;;;;;13.43;6.75;;;;;;;8.69;74.41;92819.81;5064516;28;20254;-73
2022/02/22 07:07:31;;;;;;;13.13;7.32;;;;;;;8.74;73.96;92802.91;5063652;28;20036;-73
2022/02/22 07:09:56;;;;;;;10.98;6.57;;;;;;;8.83;73.73;92804.38;5063294;28;20063;-73
2022/02/22 07:12:22;;;;;;;13.25;7.88;;;;;;;8.91;73.46;92808.03;5064349;28;20064;-73
2022/02/22 07:14:47;;;;;;;14.85;6.97;;;;;;;8.95;73.06;92808.94;5064523;28;20035;-73
2022/02/22 07:17:13;;;;;;;13.80;7.05;;;;;;;8.99;73.50;92809.84;5064207;28;20211;-73
2022/02/22 07:19:38;;;;;;;13.13;7.38;;;;;;;9.00;73.50;92819.38;5063885;28;20186;-73
2022/02/22 07:22:04;;;;;;;14.70;7.50;;;;;;;9.06;73.46;92824.47;5064018;28;20195;-72
2022/02/22 07:24:30;;;;;;;13.02;7.97;;;;;;;9.10;73.21;92828.81;5064118;28;20075;-72
2022/02/22 07:26:56;;;;;;;18.02;8.85;;;;;;;9.12;72.83;92823.16;5064031;28;20042;-72
2022/02/22 07:29:22;;;;;;;17.33;6.97;;;;;;;9.16;72.83;92814.22;5063994;28;20028;-72
2022/02/22 07:31:47;;;;;;;13.90;6.95;;;;;;;9.23;72.45;92813.66;5063975;28;20016;-73
2022/02/22 07:34:13;;;;;;;13.88;6.68;;;;;;;9.29;72.42;92822.22;5063761;28;20231;-72
2022/02/22 07:36:39;;;;;;;11.98;6.10;;;;;;;9.37;72.27;92819.44;5063641;28;20024;-72
2022/02/22 07:39:05;;;;;;;10.48;6.18;;;;;;;9.47;71.67;92834.22;5063958;28;20084;-72
2022/02/22 07:41:31;;;;;;;15.95;6.38;;;;;;;9.57;70.87;92825.78;5063715;28;20223;-73
2022/02/22 07:43:57;;;;;;;14.15;5.80;;;;;;;9.66;70.04;92824.91;5063761;28;20214;-73
2022/02/22 07:46:23;;;;;;;8.82;5.35;;;;;;;9.74;70.14;92832.00;5063347;28;20058;-72
2022/02/22 07:48:48;;;;;;;9.30;4.15;;;;;;;9.79;69.69;92834.44;5063399;28;20164;-72
2022/02/22 07:51:16;;;;;;;11.65;5.05;;;;;;;9.86;69.34;92832.00;5063521;28;20096;-72
2022/02/22 07:53:47;;;;;;;5.38;3.40;;;;;;;9.94;69.03;92830.34;5063082;28;20028;-72
2022/02/22 07:56:14;;;;;;;8.10;4.50;;;;;;;10.01;68.18;92830.56;5063185;28;20020;-75
2022/02/22 07:58:40;;;;;;;6.15;3.40;;;;;;;10.06;68.22;92821.59;5063348;28;20051;-73
2022/02/22 08:01:06;;;;;;;8.40;4.35;;;;;;;10.11;68.73;92826.69;5063329;28;20366;-73
2022/02/22 08:03:33;;;;;;;10.05;5.13;;;;;;;10.15;68.70;92824.91;5063444;28;20286;-73
2022/02/22 08:05:58;;;;;;;6.93;4.32;;;;;;;10.18;68.11;92822.34;5063360;28;20067;-74
2022/02/22 08:08:24;;;;;;;6.03;4.20;;;;;;;10.15;67.73;92820.34;5063180;28;20033;-73
2022/02/22 08:10:50;;;;;;;5.63;3.53;;;;;;;10.17;67.83;92823.44;5063126;28;20347;-76
2022/02/22 08:13:16;;;;;;;6.00;3.50;;;;;;;10.25;67.23;92819.88;5062853;28;20111;-75
2022/02/22 08:15:42;;;;;;;4.57;2.63;;;;;;;10.35;66.10;92829.31;5063189;28;20216;-75
2022/02/22 08:18:08;;;;;;;3.97;2.50;;;;;;;10.38;65.56;92822.53;5063056;28;20017;-77
2022/02/22 08:20:34;;;;;;;6.68;3.50;;;;;;;10.43;65.99;92827.66;5062950;28;20115;-76
2022/02/22 08:23:00;;;;;;;4.13;3.22;;;;;;;10.51;65.45;92836.63;5063250;28;20066;-77
2022/02/22 08:25:26;;;;;;;6.45;3.58;;;;;;;10.58;65.52;92837.63;5063245;28;20207;-76
2022/02/22 08:27:52;;;;;;;8.00;3.92;;;;;;;10.71;65.16;92840.25;5061783;28;20092;-76
2022/02/22 08:30:17;;;;;;;7.88;4.47;;;;;;;10.73;64.98;92841.44;5062926;28;20307;-76
2022/02/22 08:32:43;;;;;;;6.45;4.60;;;;;;;10.69;64.37;92842.47;5062797;28;20329;-75
2022/02/22 08:35:08;;;;;;;9.05;5.15;;;;;;;10.75;64.97;92846.44;5062997;28;20021;-73
2022/02/22 08:37:34;;;;;;;8.95;4.15;;;;;;;10.78;63.42;92846.53;5062815;28;20088;-74
2022/02/22 08:40:00;;;;;;;7.07;4.03;;;;;;;10.81;63.13;92850.44;5062580;28;20070;-73
2022/02/22 08:42:26;;;;;;;6.93;3.65;;;;;;;10.82;63.31;92852.72;5062628;28;20028;-74
2022/02/22 08:44:53;;;;;;;9.95;4.07;;;;;;;10.91;63.30;92860.59;5062994;28;20024;-75
2022/02/22 08:47:18;;;;;;;7.63;3.88;;;;;;;10.87;61.60;92859.72;5062722;28;20276;-74
2022/02/22 08:49:46;;;;;;;5.28;3.30;;;;;;;10.69;62.43;92856.56;5062453;28;20314;-73
2022/02/22 08:52:11;;;;;;;4.72;3.38;;;;;;;10.64;63.17;92860.25;5062473;28;20028;-74
2022/02/22 08:54:37;;;;;;;5.57;3.30;;;;;;;10.53;61.71;92864.47;5062715;28;20017;-76
2022/02/22 08:57:02;;;;;;;12.07;3.55;;;;;;;10.35;62.75;92855.19;5062307;28;20314;-76
2022/02/22 08:59:28;;;;;;;8.02;3.83;;;;;;;10.24;63.42;92868.16;5062361;28;20128;-75
2022/02/22 09:01:53;;;;;;;8.43;4.65;;;;;;;10.05;64.89;92863.38;5062648;28;20016;-74
2022/02/22 09:04:18;;;;;;;10.50;5.65;;;;;;;9.91;64.56;92870.94;5061693;28;20032;-72
2022/02/22 09:06:44;;;;;;;13.23;8.10;;;;;;;9.67;66.27;92882.31;5062188;28;20021;-74
2022/02/22 09:09:09;;;;;;;16.08;8.80;;;;;;;9.37;67.39;92885.94;5062301;28;20021;-74
2022/02/22 09:11:35;;;;;;;18.98;10.05;;;;;;;8.98;68.53;92889.91;5061901;28;20332;-73
2022/02/22 09:14:00;;;;;;;14.98;9.27;;;;;;;8.87;68.99;92899.38;5062240;28;20051;-73
2022/02/22 09:16:26;;;;;;;12.60;7.93;;;;;;;8.64;68.75;92905.78;5062290;28;20346;-72
2022/02/22 09:18:53;;;;;;;20.60;7.93;;;;;;;8.46;70.09;92904.34;5062283;28;20059;-72
2022/02/22 09:21:19;;;;;;;15.30;6.65;;;;;;;8.32;70.71;92901.91;5062102;28;20219;-73
2022/02/22 09:23:44;;;;;;;11.65;6.50;;;;;;;8.10;72.07;92910.94;5062386;28;20045;-74
2022/02/22 09:26:10;;;;;;;15.10;6.55;;;;;;;7.91;73.77;92918.50;5062060;28;20021;-73
2022/02/22 09:28:36;;;;;;;11.32;6.72;;;;;;;7.43;74.41;92931.78;5061866;28;20020;-74
2022/02/22 09:31:01;;;;;;;12.93;7.05;;;;;;;6.97;75.33;92930.56;5062061;28;20055;-75
2022/02/22 09:33:27;;;;;;;12.75;6.32;;;;;;;6.57;76.59;92941.34;5062169;28;20338;-75
2022/02/22 09:35:52;;;;;;;19.55;7.53;;;;;;;6.32;78.22;92939.41;5062083;28;20025;-75
2022/02/22 09:38:17;;;;;;;11.57;6.45;;;;;;;6.06;79.06;92932.19;5062176;28;20355;-75
2022/02/22 09:40:44;;;;;;;16.20;6.25;;;;;;;5.79;79.49;92938.44;5062173;28;20025;-76
2022/02/22 09:43:09;;;;;;;13.20;6.28;;;;;;;5.75;80.31;92932.97;5060824;28;20123;-75
2022/02/22 09:45:35;;;;;;;9.02;5.50;;;;;;;5.57;80.61;92947.97;5062063;28;20323;-75
2022/02/22 09:48:04;;;;;;;10.10;4.95;;;;;;;5.35;80.58;92951.44;5061969;28;20390;-72
2022/02/22 09:50:32;;;;;;;8.57;4.85;;;;;;;5.23;80.82;92954.63;5061793;28;20021;-73
2022/02/22 09:52:57;;;;;;;8.98;4.97;;;;;;;5.17;80.63;92960.31;5061967;28;20025;-73
2022/02/22 09:55:23;;;;;;;9.50;5.13;;;;;;;5.00;81.09;92956.47;5062018;28;20196;-72
2022/02/22 09:57:50;;;;;;;8.60;4.50;;;;;;;4.87;81.49;92967.88;5061925;28;20040;-73
2022/02/22 10:00:17;;;;;;;7.50;4.47;;;;;;;4.90;81.48;92962.00;5061816;28;20048;-73
2022/02/22 10:02:42;;;;;;;8.90;4.88;;;;;;;4.85;82.64;92966.63;5062039;28;20024;-73
2022/02/22 10:05:15;;;;;;;8.63;5.28;;;;;;;4.89;83.00;92981.56;5061891;28;20047;-73
2022/02/22 10:07:47;;;;;;;8.23;3.80;;;;;;;4.82;81.05;92981.19;5061903;28;20088;-73
2022/02/22 10:10:12;;;;;;;7.40;3.83;;;;;;;4.60;81.08;92980.09;5061641;28;20032;-74
2022/02/22 10:12:40;;;;;;;5.85;3.13;;;;;;;4.44;81.29;92992.03;5061891;28;20274;-72
2022/02/22 10:15:07;;;;;;;4.53;2.22;;;;;;;4.29;81.19;93005.53;5060508;28;20272;-72
2022/02/22 10:17:41;;;;;;;5.32;2.38;;;;;;;4.02;81.49;92992.06;5065685;28;20039;-72
2022/02/22 10:20:09;;;;;;;3.90;2.42;;;;;;;3.89;81.47;92998.13;5065370;28;20017;-72
2022/02/22 10:22:49;;;;;;;4.47;2.03;;;;;;;3.74;82.24;93008.91;5065436;28;20383;-72
2022/02/22 10:25:15;;;;;;;4.05;2.20;;;;;;;3.62;83.08;92993.56;5065403;28;20046;-72
2022/02/22 10:27:52;;;;;;;3.55;1.83;;;;;;;3.54;82.69;92999.50;5065252;28;20035;-72
2022/02/22 10:30:40;;;;;;;3.35;1.73;;;;;;;3.49;82.86;93015.41;5065380;28;20151;-73
2022/02/22 10:33:26;;;;;;;6.10;2.03;;;;;;;3.40;82.59;93029.25;5065386;28;20040;-72
2022/02/22 10:36:07;;;;;;;2.53;1.45;;;;;;;3.29;81.87;93022.56;5065169;28;20021;-73
2022/02/22 10:38:35;;;;;;;2.88;1.67;;;;;;;3.27;82.01;93023.94;5065095;28;20023;-73
2022/02/22 10:41:15;;;;;;;3.83;2.30;;;;;;;3.27;82.98;93029.19;5064990;28;20289;-72
2022/02/22 10:43:50;;;;;;;3.08;1.75;;;;;;;3.31;82.48;93019.66;5065032;28;20258;-72
2022/02/22 10:46:16;;;;;;;3.08;1.58;;;;;;;3.14;81.70;93025.47;5064978;28;20181;-73
2022/02/22 10:48:43;;;;;;;2.88;1.75;;;;;;;3.17;81.81;93024.88;5064872;28;20039;-72
2022/02/22 10:51:14;;;;;;;3.78;1.80;;;;;;;3.13;82.32;93023.88;5064751;28;20028;-72
2022/02/22 10:53:44;;;;;;;5.07;2.20;;;;;;;3.08;83.26;93029.22;5064339;28;20055;-72
2022/02/22 10:56:11;;;;;;;2.95;1.90;;;;;;;3.01;82.72;93027.75;5064789;28;20197;-72
2022/02/22 10:58:43;;;;;;;2.63;1.42;;;;;;;2.94;82.73;93027.31;5064624;28;20066;-72
2022/02/22 11:01:16;;;;;;;3.67;2.05;;;;;;;2.87;82.92;93026.91;5064774;28;20254;-73
2022/02/22 11:03:43;;;;;;;2.90;1.63;;;;;;;2.80;83.40;93024.59;5064699;28;20079;-73
2022/02/22 11:06:13;;;;;;;2.58;1.75;;;;;;;2.76;82.72;93030.72;5064715;28;20029;-72
2022/02/22 11:08:46;;;;;;;4.70;1.95;;;;;;;2.72;83.40;93027.09;5064537;28;20017;-72
2022/02/22 11:11:33;;;;;;;3.33;1.95;;;;;;;2.77;84.01;93022.56;5064429;28;20104;-72
2022/02/22 11:14:02;;;;;;;4.70;2.45;;;;;;;2.69;82.70;93030.31;5064382;28;20100;-71
2022/02/22 11:16:45;;;;;;;3.13;2.20;;;;;;;2.78;83.26;93032.00;5064397;28;20036;-71
2022/02/22 11:19:15;;;;;;;;;;;;;;;2.91;84.62;93027.91;5064783;28;20040;-72
2022/02/22 11:21:41;;;;;;;3.15;1.92;;;;;;;2.86;83.34;93020.06;5064244;28;19904;-72
2022/02/22 11:24:09;;;;;;;5.22;2.10;;;;;;;2.75;83.66;93018.66;5064053;28;20214;-72
2022/02/22 11:26:50;;;;;;;4.88;2.78;;;;;;;2.84;84.08;93026.69;5064211;28;20021;-72
2022/02/22 11:29:17;;;;;;;2.88;1.42;;;;;;;2.82;83.02;93019.06;5063950;28;20028;-72
2022/02/22 11:31:56;;;;;;;3.33;1.98;;;;;;;2.78;82.33;93025.97;5064195;28;20043;-72